createdAt,value
2023-05-31T00:00:33.111Z,88646.00
2023-05-31T00:01:33.106Z,88644.00
2023-05-31T00:02:33.136Z,88644.00
2023-05-31T00:03:33.143Z,88646.00
2023-05-31T00:04:33.079Z,88646.00
2023-05-31T00:05:33.077Z,88646.00
2023-05-31T00:06:33.070Z,88646.00
2023-05-31T00:07:33.066Z,88646.00
2023-05-31T00:08:33.040Z,88646.00
2023-05-31T00:09:33.051Z,88648.00
2023-05-31T00:10:33.047Z,88646.00
2023-05-31T00:11:33.039Z,88646.00
2023-05-31T00:12:33.078Z,88648.00
2023-05-31T00:13:33.141Z,88646.00
2023-05-31T00:14:33.182Z,88646.00
2023-05-31T00:15:33.219Z,88646.00
2023-05-31T00:17:07.114Z,88646.00
2023-05-31T00:17:50.123Z,88644.00
2023-05-31T00:18:34.287Z,88644.00
2023-05-31T00:19:33.237Z,88642.00
2023-05-31T00:20:33.289Z,88642.00
2023-05-31T00:21:33.239Z,88644.00
2023-05-31T00:22:33.222Z,88642.00
2023-05-31T00:23:33.205Z,88644.00
2023-05-31T00:24:33.197Z,88644.00
2023-05-31T00:25:33.192Z,88642.00
2023-05-31T00:26:33.187Z,88644.00
2023-05-31T00:27:33.178Z,88646.00
2023-05-31T00:28:33.213Z,88644.00
2023-05-31T00:29:33.158Z,88642.00
2023-05-31T00:30:33.279Z,88644.00
2023-05-31T00:31:33.160Z,88644.00
2023-05-31T00:32:33.160Z,88646.00
2023-05-31T00:33:33.129Z,88646.00
2023-05-31T00:34:33.135Z,88646.00
2023-05-31T00:35:33.124Z,88646.00
2023-05-31T00:36:33.135Z,88644.00
2023-05-31T00:37:33.117Z,88646.00
2023-05-31T00:38:33.115Z,88646.00
2023-05-31T00:39:33.118Z,88648.00
2023-05-31T00:40:33.107Z,88648.00
2023-05-31T00:41:33.112Z,88648.00
2023-05-31T00:42:33.146Z,88648.00
2023-05-31T00:43:33.196Z,88650.00
2023-05-31T00:44:33.245Z,88648.00
2023-05-31T00:45:33.321Z,88648.00
2023-05-31T00:46:33.372Z,88650.00
2023-05-31T00:47:33.467Z,88648.00
2023-05-31T00:48:33.512Z,88650.00
2023-05-31T00:49:33.523Z,88650.00
2023-05-31T00:50:33.560Z,88648.00
2023-05-31T00:51:33.628Z,88650.00
2023-05-31T00:52:33.662Z,88650.00
2023-05-31T00:53:33.736Z,88650.00
2023-05-31T00:54:33.775Z,88648.00
2023-05-31T00:55:33.841Z,88646.00
2023-05-31T00:56:33.887Z,88646.00
2023-05-31T00:57:33.947Z,88646.00
2023-05-31T00:58:33.995Z,88644.00
2023-05-31T00:59:34.056Z,88644.00
2023-05-31T01:00:34.112Z,88644.00
2023-05-31T01:01:34.722Z,88646.00
2023-05-31T01:02:34.316Z,88646.00
2023-05-31T01:03:34.274Z,88650.00
2023-05-31T01:04:34.344Z,88650.00
2023-05-31T01:05:34.390Z,88652.00
2023-05-31T01:06:34.410Z,88650.00
2023-05-31T01:07:34.386Z,88652.00
2023-05-31T01:08:34.370Z,88652.00
2023-05-31T01:09:34.379Z,88652.00
2023-05-31T01:10:34.376Z,88652.00
2023-05-31T01:11:34.402Z,88652.00
2023-05-31T01:12:34.379Z,88652.00
2023-05-31T01:13:34.380Z,88652.00
2023-05-31T01:14:34.399Z,88652.00
2023-05-31T01:15:34.392Z,88650.00
2023-05-31T01:16:34.508Z,88654.00
2023-05-31T01:17:34.487Z,88648.00
2023-05-31T01:18:34.530Z,88652.00
2023-05-31T01:19:34.597Z,88654.00
2023-05-31T01:20:34.726Z,88654.00
2023-05-31T01:21:34.715Z,88654.00
2023-05-31T01:22:34.797Z,88656.00
2023-05-31T01:23:37.469Z,88656.00
2023-05-31T01:24:34.876Z,88656.00
2023-05-31T01:25:34.841Z,88656.00
2023-05-31T01:26:34.848Z,88658.00
2023-05-31T01:27:34.842Z,88656.00
2023-05-31T01:28:34.826Z,88656.00
2023-05-31T01:29:34.825Z,88652.00
2023-05-31T01:30:34.812Z,88658.00
2023-05-31T01:31:34.880Z,88652.00
2023-05-31T01:32:34.825Z,88654.00
2023-05-31T01:33:34.787Z,88654.00
2023-05-31T01:34:34.856Z,88654.00
2023-05-31T01:35:34.916Z,88654.00
2023-05-31T01:36:34.959Z,88654.00
2023-05-31T01:37:35.008Z,88656.00
2023-05-31T01:38:35.064Z,88654.00
2023-05-31T01:39:35.151Z,88652.00
2023-05-31T01:40:35.191Z,88658.00
2023-05-31T01:41:35.280Z,88654.00
2023-05-31T01:42:35.334Z,88654.00
2023-05-31T01:43:35.395Z,88654.00
2023-05-31T01:44:35.453Z,88656.00
2023-05-31T01:45:35.556Z,88656.00
2023-05-31T01:46:35.569Z,88656.00
2023-05-31T01:47:35.660Z,88656.00
2023-05-31T01:48:35.708Z,88658.00
2023-05-31T01:49:35.752Z,88658.00
2023-05-31T01:50:35.791Z,88658.00
2023-05-31T01:51:35.818Z,88660.00
2023-05-31T01:52:35.851Z,88656.00
2023-05-31T01:53:35.895Z,88656.00
2023-05-31T01:54:35.958Z,88658.00
2023-05-31T01:55:35.996Z,88656.00
2023-05-31T01:56:35.993Z,88658.00
2023-05-31T01:57:35.984Z,88658.00
2023-05-31T01:58:35.969Z,88658.00
2023-05-31T01:59:35.964Z,88660.00
2023-05-31T02:00:35.964Z,88660.00
2023-05-31T02:01:36.033Z,88662.00
2023-05-31T02:02:35.971Z,88660.00
2023-05-31T02:03:35.993Z,88664.00
2023-05-31T02:04:35.926Z,88662.00
2023-05-31T02:05:36.018Z,88662.00
2023-05-31T02:06:36.068Z,88662.00
2023-05-31T02:07:36.128Z,88664.00
2023-05-31T02:08:36.185Z,88664.00
2023-05-31T02:09:36.266Z,88664.00
2023-05-31T02:10:36.293Z,88664.00
2023-05-31T02:11:36.374Z,88665.00
2023-05-31T02:12:36.397Z,88665.00
2023-05-31T02:13:36.477Z,88665.00
2023-05-31T02:14:36.501Z,88664.00
2023-05-31T02:15:36.565Z,88664.00
2023-05-31T02:16:36.639Z,88664.00
2023-05-31T02:17:36.678Z,88664.00
2023-05-31T02:18:36.673Z,88664.00
2023-05-31T02:19:36.682Z,88664.00
2023-05-31T02:21:55.554Z,88665.00
2023-05-31T02:22:55.559Z,88665.00
2023-05-31T02:23:55.527Z,88664.00
2023-05-31T02:24:55.501Z,88662.00
2023-05-31T02:25:55.555Z,88662.00
2023-05-31T02:26:55.455Z,88662.00
2023-05-31T02:27:55.440Z,88660.00
2023-05-31T02:28:55.416Z,88662.00
2023-05-31T02:29:55.395Z,88660.00
2023-05-31T02:30:55.429Z,88662.00
2023-05-31T02:31:55.478Z,88658.00
2023-05-31T02:32:55.365Z,88658.00
2023-05-31T02:33:55.329Z,88658.00
2023-05-31T02:34:55.325Z,88658.00
2023-05-31T02:35:55.300Z,88656.00
2023-05-31T02:36:55.278Z,88654.00
2023-05-31T02:37:55.268Z,88654.00
2023-05-31T02:38:55.240Z,88656.00
2023-05-31T02:39:55.230Z,88654.00
2023-05-31T02:40:55.229Z,88654.00
2023-05-31T02:41:55.197Z,88654.00
2023-05-31T02:42:55.163Z,88654.00
2023-05-31T02:43:55.138Z,88652.00
2023-05-31T02:44:55.105Z,88654.00
2023-05-31T02:45:55.073Z,88654.00
2023-05-31T02:46:55.166Z,88652.00
2023-05-31T02:47:55.045Z,88654.00
2023-05-31T02:48:54.988Z,88654.00
2023-05-31T02:49:54.964Z,88650.00
2023-05-31T02:50:54.941Z,88652.00
2023-05-31T02:51:54.917Z,88654.00
2023-05-31T02:52:54.885Z,88654.00
2023-05-31T02:53:54.872Z,88652.00
2023-05-31T02:54:54.865Z,88652.00
2023-05-31T02:55:54.848Z,88652.00
2023-05-31T02:56:54.852Z,88654.00
2023-05-31T02:57:54.818Z,88654.00
2023-05-31T02:58:54.863Z,88652.00
2023-05-31T02:59:54.923Z,88652.00
2023-05-31T03:00:54.901Z,88654.00
2023-05-31T03:01:54.905Z,88656.00
2023-05-31T03:02:55.002Z,88654.00
2023-05-31T03:03:54.915Z,88654.00
2023-05-31T03:04:54.878Z,88652.00
2023-05-31T03:05:54.843Z,88652.00
2023-05-31T03:06:54.842Z,88652.00
2023-05-31T03:07:54.840Z,88654.00
2023-05-31T03:08:54.862Z,88652.00
2023-05-31T03:09:54.851Z,88652.00
2023-05-31T03:10:54.820Z,88650.00
2023-05-31T03:11:54.806Z,88650.00
2023-05-31T03:12:54.794Z,88648.00
2023-05-31T03:13:54.753Z,88646.00
2023-05-31T03:14:54.722Z,88648.00
2023-05-31T03:15:54.703Z,88646.00
2023-05-31T03:16:54.673Z,88648.00
2023-05-31T03:17:54.691Z,88648.00
2023-05-31T03:18:54.622Z,88650.00
2023-05-31T03:19:54.625Z,88652.00
2023-05-31T03:20:54.630Z,88648.00
2023-05-31T03:21:54.608Z,88654.00
2023-05-31T03:22:54.570Z,88656.00
2023-05-31T03:23:54.544Z,88656.00
2023-05-31T03:24:54.514Z,88656.00
2023-05-31T03:25:54.507Z,88650.00
2023-05-31T03:26:54.475Z,88656.00
2023-05-31T03:27:54.452Z,88650.00
2023-05-31T03:28:54.465Z,88652.00
2023-05-31T03:29:54.488Z,88652.00
2023-05-31T03:30:54.522Z,88652.00
2023-05-31T03:31:54.558Z,88650.00
2023-05-31T03:32:54.619Z,88652.00
2023-05-31T03:33:54.611Z,88652.00
2023-05-31T03:34:54.648Z,88650.00
2023-05-31T03:35:54.666Z,88652.00
2023-05-31T03:36:54.717Z,88652.00
2023-05-31T03:37:54.732Z,88650.00
2023-05-31T03:38:54.753Z,88654.00
2023-05-31T03:39:54.742Z,88654.00
2023-05-31T03:40:54.732Z,88654.00
2023-05-31T03:41:54.771Z,88654.00
2023-05-31T03:42:54.781Z,88654.00
2023-05-31T03:43:54.797Z,88656.00
2023-05-31T03:44:54.789Z,88654.00
2023-05-31T03:45:54.878Z,88656.00
2023-05-31T03:46:54.871Z,88660.00
2023-05-31T03:47:54.939Z,88658.00
2023-05-31T03:48:55.969Z,88656.00
2023-05-31T03:49:54.982Z,88654.00
2023-05-31T03:50:54.952Z,88660.00
2023-05-31T03:51:54.947Z,88660.00
2023-05-31T03:52:54.921Z,88662.00
2023-05-31T03:53:54.897Z,88664.00
2023-05-31T03:54:54.868Z,88660.00
2023-05-31T03:55:54.854Z,88662.00
2023-05-31T03:56:54.828Z,88665.00
2023-05-31T03:57:54.816Z,88667.00
2023-05-31T03:58:54.783Z,88667.00
2023-05-31T03:59:54.791Z,88665.00
2023-05-31T04:00:54.774Z,88664.00
2023-05-31T04:01:54.744Z,88662.00
2023-05-31T04:03:04.328Z,88660.00
2023-05-31T04:03:55.861Z,88662.00
2023-05-31T04:04:54.759Z,88662.00
2023-05-31T04:05:54.669Z,88664.00
2023-05-31T04:06:54.697Z,88662.00
2023-05-31T04:07:54.635Z,88662.00
2023-05-31T04:08:54.604Z,88660.00
2023-05-31T04:09:54.608Z,88660.00
2023-05-31T04:10:54.559Z,88658.00
2023-05-31T04:11:54.547Z,88658.00
2023-05-31T04:12:54.526Z,88658.00
2023-05-31T04:13:54.553Z,88658.00
2023-05-31T04:14:54.494Z,88656.00
2023-05-31T04:15:54.515Z,88656.00
2023-05-31T04:16:54.443Z,88658.00
2023-05-31T04:17:54.447Z,88654.00
2023-05-31T04:18:54.462Z,88658.00
2023-05-31T04:19:54.490Z,88656.00
2023-05-31T04:20:54.587Z,88658.00
2023-05-31T04:21:54.591Z,88658.00
2023-05-31T04:22:54.679Z,88660.00
2023-05-31T04:23:54.655Z,88660.00
2023-05-31T04:24:54.680Z,88662.00
2023-05-31T04:25:54.709Z,88665.00
2023-05-31T04:26:54.746Z,88662.00
2023-05-31T04:27:54.770Z,88665.00
2023-05-31T04:28:54.846Z,88665.00
2023-05-31T04:29:54.787Z,88665.00
2023-05-31T04:30:54.841Z,88665.00
2023-05-31T04:31:54.785Z,88664.00
2023-05-31T04:32:54.750Z,88665.00
2023-05-31T04:33:54.730Z,88665.00
2023-05-31T04:34:54.716Z,88662.00
2023-05-31T04:35:54.713Z,88664.00
2023-05-31T04:36:54.695Z,88664.00
2023-05-31T04:37:54.708Z,88664.00
2023-05-31T04:38:54.698Z,88662.00
2023-05-31T04:39:54.709Z,88662.00
2023-05-31T04:40:54.700Z,88664.00
2023-05-31T04:41:54.689Z,88664.00
2023-05-31T04:42:54.694Z,88664.00
2023-05-31T04:43:54.715Z,88664.00
2023-05-31T04:44:54.703Z,88667.00
2023-05-31T04:45:54.759Z,88667.00
2023-05-31T04:46:54.677Z,88667.00
2023-05-31T04:47:54.696Z,88664.00
2023-05-31T04:48:54.645Z,88662.00
2023-05-31T04:49:55.342Z,88662.00
2023-05-31T04:50:54.600Z,88662.00
2023-05-31T04:51:54.588Z,88658.00
2023-05-31T04:52:54.568Z,88658.00
2023-05-31T04:53:54.554Z,88658.00
2023-05-31T04:54:54.543Z,88656.00
2023-05-31T04:55:54.532Z,88656.00
2023-05-31T04:56:54.507Z,88654.00
2023-05-31T04:57:55.303Z,88652.00
2023-05-31T04:58:54.471Z,88656.00
2023-05-31T04:59:54.452Z,88652.00
2023-05-31T05:00:54.465Z,88652.00
2023-05-31T05:01:54.480Z,88652.00
2023-05-31T05:02:54.552Z,88652.00
2023-05-31T05:03:54.754Z,88652.00
2023-05-31T05:04:54.507Z,88654.00
2023-05-31T05:05:54.479Z,88656.00
2023-05-31T05:06:54.478Z,88654.00
2023-05-31T05:07:54.436Z,88652.00
2023-05-31T05:08:54.412Z,88654.00
2023-05-31T05:09:54.393Z,88652.00
2023-05-31T05:10:54.395Z,88654.00
2023-05-31T05:11:54.414Z,88652.00
2023-05-31T05:12:54.324Z,88654.00
2023-05-31T05:13:54.682Z,88654.00
2023-05-31T05:14:54.294Z,88652.00
2023-05-31T05:15:54.274Z,88654.00
2023-05-31T05:16:54.330Z,88656.00
2023-05-31T05:17:54.322Z,88654.00
2023-05-31T05:18:54.236Z,88654.00
2023-05-31T05:19:54.229Z,88654.00
2023-05-31T05:20:54.243Z,88652.00
2023-05-31T05:21:54.191Z,88650.00
2023-05-31T05:22:54.193Z,88650.00
2023-05-31T05:23:54.162Z,88650.00
2023-05-31T05:24:54.193Z,88648.00
2023-05-31T05:25:54.232Z,88646.00
2023-05-31T05:26:54.270Z,88646.00
2023-05-31T05:27:54.292Z,88648.00
2023-05-31T05:28:54.288Z,88648.00
2023-05-31T05:29:54.281Z,88648.00
2023-05-31T05:30:54.331Z,88650.00
2023-05-31T05:31:54.259Z,88650.00
2023-05-31T05:32:54.279Z,88652.00
2023-05-31T05:33:54.283Z,88648.00
2023-05-31T05:34:54.241Z,88652.00
2023-05-31T05:35:54.215Z,88650.00
2023-05-31T05:36:54.245Z,88648.00
2023-05-31T05:37:54.216Z,88648.00
2023-05-31T05:38:54.174Z,88644.00
2023-05-31T05:39:54.153Z,88648.00
2023-05-31T05:40:54.209Z,88650.00
2023-05-31T05:41:54.134Z,88650.00
2023-05-31T05:42:54.106Z,88646.00
2023-05-31T05:43:54.083Z,88646.00
2023-05-31T05:44:54.128Z,88644.00
2023-05-31T05:45:54.037Z,88640.00
2023-05-31T05:46:54.219Z,88642.00
2023-05-31T05:47:54.225Z,88642.00
2023-05-31T05:48:54.412Z,88642.00
2023-05-31T05:49:54.252Z,88640.00
2023-05-31T05:50:54.271Z,88642.00
2023-05-31T05:51:54.306Z,88640.00
2023-05-31T05:52:54.478Z,88636.00
2023-05-31T05:53:54.372Z,88640.00
2023-05-31T05:54:54.417Z,88636.00
2023-05-31T05:55:54.416Z,88632.00
2023-05-31T05:56:54.443Z,88632.00
2023-05-31T05:57:54.504Z,88630.00
2023-05-31T05:58:54.496Z,88634.00
2023-05-31T05:59:54.525Z,88634.00
2023-05-31T06:00:54.702Z,88632.00
2023-05-31T06:01:54.633Z,88634.00
2023-05-31T06:02:54.768Z,88630.00
2023-05-31T06:03:54.792Z,88630.00
2023-05-31T06:04:54.737Z,88630.00
2023-05-31T06:05:54.862Z,88630.00
2023-05-31T06:06:54.699Z,88628.00
2023-05-31T06:07:54.700Z,88628.00
2023-05-31T06:08:54.633Z,88628.00
2023-05-31T06:09:54.610Z,88626.00
2023-05-31T06:10:54.585Z,88626.00
2023-05-31T06:11:54.606Z,88628.00
2023-05-31T06:12:54.545Z,88630.00
2023-05-31T06:13:54.518Z,88628.00
2023-05-31T06:14:55.761Z,88628.00
2023-05-31T06:15:54.474Z,88624.00
2023-05-31T06:16:54.667Z,88622.00
2023-05-31T06:17:54.438Z,88622.00
2023-05-31T06:18:54.456Z,88622.00
2023-05-31T06:19:54.478Z,88620.00
2023-05-31T06:20:54.623Z,88622.00
2023-05-31T06:21:54.535Z,88620.00
2023-05-31T06:22:54.528Z,88618.00
2023-05-31T06:23:54.533Z,88620.00
2023-05-31T06:24:54.557Z,88618.00
2023-05-31T06:25:54.558Z,88618.00
2023-05-31T06:26:54.568Z,88620.00
2023-05-31T06:27:54.596Z,88620.00
2023-05-31T06:28:54.584Z,88620.00
2023-05-31T06:29:54.530Z,88616.00
2023-05-31T06:30:54.497Z,88610.00
2023-05-31T06:31:54.668Z,88612.00
2023-05-31T06:32:54.505Z,88614.00
2023-05-31T06:33:54.404Z,88612.00
2023-05-31T06:34:54.376Z,88610.00
2023-05-31T06:35:54.348Z,88609.00
2023-05-31T06:36:54.350Z,88610.00
2023-05-31T06:37:54.317Z,88609.00
2023-05-31T06:38:54.265Z,88609.00
2023-05-31T06:39:54.256Z,88607.00
2023-05-31T06:40:54.226Z,88609.00
2023-05-31T06:41:54.223Z,88605.00
2023-05-31T06:42:54.181Z,88607.00
2023-05-31T06:43:54.145Z,88605.00
2023-05-31T06:44:56.705Z,88601.00
2023-05-31T06:45:54.091Z,88599.00
2023-05-31T06:46:54.136Z,88601.00
2023-05-31T06:47:54.033Z,88601.00
2023-05-31T06:49:00.681Z,88597.00
2023-05-31T06:49:54.970Z,88597.00
2023-05-31T06:50:53.958Z,88593.00
2023-05-31T06:51:53.936Z,88591.00
2023-05-31T06:52:53.931Z,88589.00
2023-05-31T06:53:53.856Z,88589.00
2023-05-31T06:54:53.821Z,88587.00
2023-05-31T06:55:53.797Z,88589.00
2023-05-31T06:56:53.802Z,88587.00
2023-05-31T06:57:54.782Z,88583.00
2023-05-31T06:58:53.738Z,88587.00
2023-05-31T06:59:53.726Z,88585.00
2023-05-31T07:00:53.738Z,88583.00
2023-05-31T07:01:53.771Z,88585.00
2023-05-31T07:02:53.653Z,88583.00
2023-05-31T07:03:53.658Z,88583.00
2023-05-31T07:04:53.597Z,88581.00
2023-05-31T07:05:53.569Z,88581.00
2023-05-31T07:06:53.573Z,88581.00
2023-05-31T07:07:53.518Z,88579.00
2023-05-31T07:08:53.516Z,88581.00
2023-05-31T07:09:53.514Z,88579.00
2023-05-31T07:10:53.475Z,88579.00
2023-05-31T07:11:53.429Z,88577.00
2023-05-31T07:12:53.411Z,88577.00
2023-05-31T07:13:53.375Z,88573.00
2023-05-31T07:14:53.327Z,88579.00
2023-05-31T07:15:53.356Z,88571.00
2023-05-31T07:16:53.313Z,88577.00
2023-05-31T07:17:53.288Z,88575.00
2023-05-31T07:18:53.248Z,88575.00
2023-05-31T07:19:53.224Z,88573.00
2023-05-31T07:20:53.221Z,88573.00
2023-05-31T07:21:53.164Z,88571.00
2023-05-31T07:22:53.167Z,88575.00
2023-05-31T07:23:53.100Z,88575.00
2023-05-31T07:24:53.092Z,88573.00
2023-05-31T07:25:53.068Z,88573.00
2023-05-31T07:26:53.036Z,88575.00
2023-05-31T07:27:52.997Z,88573.00
2023-05-31T07:28:52.967Z,88573.00
2023-05-31T07:29:52.934Z,88569.00
2023-05-31T07:30:52.905Z,88569.00
2023-05-31T07:31:52.874Z,88571.00
2023-05-31T07:32:52.970Z,88567.00
2023-05-31T07:33:52.867Z,88569.00
2023-05-31T07:35:03.332Z,88563.00
2023-05-31T07:35:58.343Z,88561.00
2023-05-31T07:36:53.736Z,88559.00
2023-05-31T07:37:52.708Z,88561.00
2023-05-31T07:38:52.671Z,88561.00
2023-05-31T07:39:52.651Z,88559.00
2023-05-31T07:40:52.713Z,88561.00
2023-05-31T07:41:52.578Z,88563.00
2023-05-31T07:42:52.544Z,88563.00
2023-05-31T07:43:52.560Z,88559.00
2023-05-31T07:44:52.562Z,88567.00
2023-05-31T07:45:52.477Z,88563.00
2023-05-31T07:46:52.463Z,88561.00
2023-05-31T07:47:52.445Z,88561.00
2023-05-31T07:48:52.412Z,88555.00
2023-05-31T07:49:52.382Z,88559.00
2023-05-31T07:50:52.317Z,88555.00
2023-05-31T07:51:52.331Z,88552.00
2023-05-31T07:52:52.315Z,88554.00
2023-05-31T07:53:52.279Z,88550.00
2023-05-31T07:54:52.219Z,88550.00
2023-05-31T07:55:52.228Z,88552.00
2023-05-31T07:56:52.192Z,88550.00
2023-05-31T07:57:52.167Z,88544.00
2023-05-31T07:58:52.258Z,88548.00
2023-05-31T07:59:52.066Z,88548.00
2023-05-31T08:00:52.102Z,88548.00
2023-05-31T08:01:52.149Z,88548.00
2023-05-31T08:02:52.036Z,88546.00
2023-05-31T08:03:52.003Z,88546.00
2023-05-31T08:04:51.957Z,88544.00
2023-05-31T08:05:52.567Z,88544.00
2023-05-31T08:06:51.916Z,88546.00
2023-05-31T08:07:52.422Z,88546.00
2023-05-31T08:08:51.815Z,88546.00
2023-05-31T08:09:51.835Z,88548.00
2023-05-31T08:10:51.810Z,88548.00
2023-05-31T08:11:51.814Z,88550.00
2023-05-31T08:12:51.778Z,88546.00
2023-05-31T08:13:51.739Z,88548.00
2023-05-31T08:14:51.714Z,88546.00
2023-05-31T08:15:51.679Z,88542.00
2023-05-31T08:16:51.710Z,88546.00
2023-05-31T08:17:51.678Z,88544.00
2023-05-31T08:18:51.606Z,88540.00
2023-05-31T08:19:51.582Z,88538.00
2023-05-31T08:20:51.581Z,88538.00
2023-05-31T08:21:51.573Z,88534.00
2023-05-31T08:22:51.493Z,88532.00
2023-05-31T08:23:51.450Z,88530.00
2023-05-31T08:24:51.432Z,88528.00
2023-05-31T08:25:51.420Z,88530.00
2023-05-31T08:26:51.397Z,88528.00
2023-05-31T08:27:51.334Z,88528.00
2023-05-31T08:28:51.323Z,88530.00
2023-05-31T08:29:51.277Z,88530.00
2023-05-31T08:30:51.290Z,88530.00
2023-05-31T08:31:51.237Z,88530.00
2023-05-31T08:32:51.231Z,88534.00
2023-05-31T08:33:51.289Z,88528.00
2023-05-31T08:34:51.153Z,88526.00
2023-05-31T08:35:51.116Z,88526.00
2023-05-31T08:36:51.085Z,88530.00
2023-05-31T08:37:51.052Z,88528.00
2023-05-31T08:38:51.025Z,88534.00
2023-05-31T08:39:50.992Z,88530.00
2023-05-31T08:40:50.960Z,88530.00
2023-05-31T08:41:50.927Z,88534.00
2023-05-31T08:42:50.893Z,88532.00
2023-05-31T08:43:50.905Z,88536.00
2023-05-31T08:44:50.835Z,88536.00
2023-05-31T08:45:50.840Z,88534.00
2023-05-31T08:46:50.864Z,88534.00
2023-05-31T08:47:50.782Z,88536.00
2023-05-31T08:48:50.702Z,88538.00
2023-05-31T08:49:50.680Z,88538.00
2023-05-31T08:50:53.352Z,88534.00
2023-05-31T08:51:50.639Z,88530.00
2023-05-31T08:52:50.609Z,88532.00
2023-05-31T08:53:50.568Z,88526.00
2023-05-31T08:54:50.541Z,88528.00
2023-05-31T08:55:50.510Z,88524.00
2023-05-31T08:56:50.485Z,88526.00
2023-05-31T08:57:50.446Z,88526.00
2023-05-31T08:58:50.408Z,88532.00
2023-05-31T08:59:50.381Z,88530.00
2023-05-31T09:00:50.381Z,88532.00
2023-05-31T09:01:50.373Z,88530.00
2023-05-31T09:02:50.301Z,88530.00
2023-05-31T09:03:50.284Z,88534.00
2023-05-31T09:04:50.265Z,88536.00
2023-05-31T09:05:50.192Z,88534.00
2023-05-31T09:06:50.162Z,88536.00
2023-05-31T09:07:50.146Z,88534.00
2023-05-31T09:08:50.157Z,88538.00
2023-05-31T09:09:50.056Z,88538.00
2023-05-31T09:10:50.057Z,88540.00
2023-05-31T09:11:50.085Z,88538.00
2023-05-31T09:12:50.115Z,88542.00
2023-05-31T09:13:50.137Z,88540.00
2023-05-31T09:14:50.222Z,88540.00
2023-05-31T09:15:50.213Z,88540.00
2023-05-31T09:16:50.306Z,88538.00
2023-05-31T09:17:50.218Z,88540.00
2023-05-31T09:18:50.109Z,88538.00
2023-05-31T09:19:50.098Z,88534.00
2023-05-31T09:20:50.123Z,88534.00
2023-05-31T09:21:50.024Z,88530.00
2023-05-31T09:22:49.987Z,88528.00
2023-05-31T09:23:49.953Z,88530.00
2023-05-31T09:24:49.980Z,88528.00
2023-05-31T09:25:50.014Z,88532.00
2023-05-31T09:26:50.060Z,88526.00
2023-05-31T09:27:50.095Z,88526.00
2023-05-31T09:28:50.088Z,88524.00
2023-05-31T09:29:50.151Z,88528.00
2023-05-31T09:30:50.221Z,88524.00
2023-05-31T09:31:50.205Z,88522.00
2023-05-31T09:32:50.117Z,88520.00
2023-05-31T09:33:50.095Z,88520.00
2023-05-31T09:34:50.047Z,88518.00
2023-05-31T09:35:50.045Z,88520.00
2023-05-31T09:36:50.002Z,88518.00
2023-05-31T09:37:50.017Z,88518.00
2023-05-31T09:38:50.001Z,88516.00
2023-05-31T09:39:50.042Z,88514.00
2023-05-31T09:40:50.035Z,88516.00
2023-05-31T09:41:50.075Z,88516.00
2023-05-31T09:42:50.049Z,88514.00
2023-05-31T09:43:49.995Z,88516.00
2023-05-31T09:44:50.093Z,88518.00
2023-05-31T09:45:49.980Z,88518.00
2023-05-31T09:46:49.918Z,88520.00
2023-05-31T09:47:49.914Z,88514.00
2023-05-31T09:48:49.851Z,88516.00
2023-05-31T09:49:49.827Z,88514.00
2023-05-31T09:50:49.788Z,88514.00
2023-05-31T09:51:49.788Z,88516.00
2023-05-31T09:52:49.726Z,88520.00
2023-05-31T09:53:49.718Z,88520.00
2023-05-31T09:54:49.738Z,88524.00
2023-05-31T09:55:49.756Z,88518.00
2023-05-31T09:56:49.756Z,88516.00
2023-05-31T09:57:49.727Z,88516.00
2023-05-31T09:58:49.765Z,88514.00
2023-05-31T09:59:49.762Z,88514.00
2023-05-31T10:00:49.770Z,88514.00
2023-05-31T10:01:49.895Z,88512.00
2023-05-31T10:02:49.859Z,88510.00
2023-05-31T10:03:49.768Z,88507.00
2023-05-31T10:04:49.810Z,88508.00
2023-05-31T10:05:49.776Z,88512.00
2023-05-31T10:06:49.779Z,88508.00
2023-05-31T10:07:49.913Z,88510.00
2023-05-31T10:08:49.741Z,88508.00
2023-05-31T10:09:49.751Z,88508.00
2023-05-31T10:10:49.735Z,88508.00
2023-05-31T10:11:49.733Z,88510.00
2023-05-31T10:12:49.682Z,88507.00
2023-05-31T10:13:49.673Z,88508.00
2023-05-31T10:14:49.652Z,88508.00
2023-05-31T10:15:49.707Z,88508.00
2023-05-31T10:16:50.455Z,88512.00
2023-05-31T10:17:49.619Z,88510.00
2023-05-31T10:18:49.554Z,88512.00
2023-05-31T10:19:49.525Z,88510.00
2023-05-31T10:20:49.571Z,88510.00
2023-05-31T10:21:49.474Z,88508.00
2023-05-31T10:22:49.389Z,88508.00
2023-05-31T10:23:49.368Z,88508.00
2023-05-31T10:24:49.897Z,88510.00
2023-05-31T10:25:49.267Z,88512.00
2023-05-31T10:26:49.233Z,88510.00
2023-05-31T10:27:49.200Z,88510.00
2023-05-31T10:28:49.165Z,88512.00
2023-05-31T10:29:49.133Z,88508.00
2023-05-31T10:30:49.126Z,88508.00
2023-05-31T10:31:49.103Z,88512.00
2023-05-31T10:32:49.047Z,88508.00
2023-05-31T10:33:49.006Z,88508.00
2023-05-31T10:34:48.970Z,88508.00
2023-05-31T10:35:49.890Z,88507.00
2023-05-31T10:36:48.904Z,88505.00
2023-05-31T10:37:48.869Z,88507.00
2023-05-31T10:38:48.842Z,88507.00
2023-05-31T10:39:48.774Z,88507.00
2023-05-31T10:40:48.765Z,88505.00
2023-05-31T10:41:48.743Z,88505.00
2023-05-31T10:42:48.674Z,88505.00
2023-05-31T10:43:48.697Z,88505.00
2023-05-31T10:44:48.576Z,88505.00
2023-05-31T10:45:48.543Z,88503.00
2023-05-31T10:46:48.563Z,88505.00
2023-05-31T10:47:48.516Z,88503.00
2023-05-31T10:48:48.392Z,88503.00
2023-05-31T10:49:48.408Z,88499.00
2023-05-31T10:50:48.329Z,88499.00
2023-05-31T10:51:48.299Z,88499.00
2023-05-31T10:52:48.274Z,88499.00
2023-05-31T10:53:48.226Z,88495.00
2023-05-31T10:54:48.186Z,88495.00
2023-05-31T10:55:48.220Z,88491.00
2023-05-31T10:56:48.107Z,88491.00
2023-05-31T10:57:48.133Z,88489.00
2023-05-31T10:58:48.042Z,88487.00
2023-05-31T10:59:48.025Z,88489.00
2023-05-31T11:00:48.001Z,88491.00
2023-05-31T11:01:47.972Z,88493.00
2023-05-31T11:02:48.005Z,88489.00
2023-05-31T11:03:48.028Z,88489.00
2023-05-31T11:04:47.865Z,88491.00
2023-05-31T11:05:47.834Z,88491.00
2023-05-31T11:06:47.804Z,88491.00
2023-05-31T11:07:47.774Z,88495.00
2023-05-31T11:08:47.736Z,88493.00
2023-05-31T11:09:47.703Z,88495.00
2023-05-31T11:10:47.699Z,88495.00
2023-05-31T11:11:47.770Z,88493.00
2023-05-31T11:12:47.736Z,88495.00
2023-05-31T11:13:47.762Z,88493.00
2023-05-31T11:14:47.807Z,88495.00
2023-05-31T11:15:47.800Z,88497.00
2023-05-31T11:16:47.824Z,88495.00
2023-05-31T11:17:47.852Z,88497.00
2023-05-31T11:18:47.839Z,88497.00
2023-05-31T11:19:47.874Z,88493.00
2023-05-31T11:20:47.910Z,88497.00
2023-05-31T11:21:47.912Z,88497.00
2023-05-31T11:22:47.949Z,88497.00
2023-05-31T11:23:47.969Z,88497.00
2023-05-31T11:24:47.932Z,88497.00
2023-05-31T11:25:48.038Z,88497.00
2023-05-31T11:26:47.873Z,88499.00
2023-05-31T11:27:47.846Z,88499.00
2023-05-31T11:28:47.816Z,88501.00
2023-05-31T11:29:47.793Z,88501.00
2023-05-31T11:30:47.751Z,88505.00
2023-05-31T11:31:47.789Z,88503.00
2023-05-31T11:32:47.754Z,88501.00
2023-05-31T11:33:58.094Z,88503.00
2023-05-31T11:34:48.705Z,88505.00
2023-05-31T11:35:47.654Z,88503.00
2023-05-31T11:36:47.644Z,88507.00
2023-05-31T11:37:47.595Z,88507.00
2023-05-31T11:38:47.553Z,88507.00
2023-05-31T11:39:47.532Z,88507.00
2023-05-31T11:40:47.501Z,88507.00
2023-05-31T11:41:47.468Z,88507.00
2023-05-31T11:42:47.534Z,88507.00
2023-05-31T11:43:47.470Z,88508.00
2023-05-31T11:44:47.451Z,88508.00
2023-05-31T11:45:47.433Z,88508.00